Time;durP1;ratioP1;P1;durP2;ratioP2;P2;SDS_P1;SDS_P2;PMS_P1;PMS_P2;Temp;Humidity;BMP_temperature;BMP_pressure;BME280_temperature;BME280_humidity;BME280_pressure;Samples;Min_cycle;Max_cycle;Signal;HPM_P1;HPM_P2
2021/03/20 00:01:14;;;;;;;16.90;9.88;;;;;;;1.41;75.49;99418.85;1743216;82;22563;-68
2021/03/20 00:03:43;;;;;;;17.00;10.35;;;;;;;1.42;75.38;99404.05;1734629;82;21713;-68
2021/03/20 00:06:11;;;;;;;17.75;10.68;;;;;;;1.28;75.62;99418.94;1739508;82;21159;-68
2021/03/20 00:08:43;;;;;;;15.63;9.48;;;;;;;1.18;75.97;99416.25;1747882;81;21682;-68
2021/03/20 00:11:11;;;;;;;15.32;10.25;;;;;;;1.09;76.18;99410.48;1752693;82;21573;-68
2021/03/20 00:13:39;;;;;;;15.53;9.40;;;;;;;1.11;76.11;99415.20;1743294;82;21301;-68
2021/03/20 00:16:08;;;;;;;13.48;9.68;;;;;;;1.23;75.85;99415.63;1738050;82;21379;-68
2021/03/20 00:18:36;;;;;;;14.03;9.18;;;;;;;1.10;76.03;99403.51;1739834;81;21155;-68
2021/03/20 00:21:04;;;;;;;12.35;7.87;;;;;;;1.05;76.28;99418.02;1748863;81;21179;-68
2021/03/20 00:23:31;;;;;;;15.10;8.63;;;;;;;0.97;76.48;99407.88;1736425;81;21204;-68
2021/03/20 00:26:00;;;;;;;17.25;10.75;;;;;;;0.94;76.66;99412.35;1736518;82;21117;-68
2021/03/20 00:28:28;;;;;;;15.13;10.40;;;;;;;1.09;76.40;99414.86;1751501;81;21320;-69
2021/03/20 00:31:01;;;;;;;17.73;11.12;;;;;;;1.21;76.13;99420.06;1738811;82;21639;-69
2021/03/20 00:33:29;;;;;;;15.70;10.45;;;;;;;1.21;76.27;99416.16;1744542;81;21178;-69
2021/03/20 00:35:57;;;;;;;32.93;15.93;;;;;;;1.21;76.33;99417.45;1758363;81;21779;-69
2021/03/20 00:38:26;;;;;;;31.42;16.25;;;;;;;1.20;76.21;99412.67;1752226;81;21160;-69
2021/03/20 00:40:54;;;;;;;38.35;19.48;;;;;;;1.23;76.05;99424.73;1745540;81;21185;-69
2021/03/20 00:43:22;;;;;;;45.65;21.65;;;;;;;1.37;75.62;99425.09;1744090;82;21148;-68
2021/03/20 00:45:50;;;;;;;34.08;17.02;;;;;;;1.42;75.55;99411.44;1742960;81;21306;-68
2021/03/20 00:48:30;;;;;;;31.77;16.45;;;;;;;1.36;75.55;99410.83;1749352;81;21274;-69
2021/03/20 00:51:01;;;;;;;35.43;18.27;;;;;;;1.26;75.65;99412.92;1744526;82;21280;-69
2021/03/20 00:53:30;;;;;;;31.23;16.65;;;;;;;1.13;75.75;99410.77;1757450;81;21585;-69
2021/03/20 00:56:01;;;;;;;31.55;15.70;;;;;;;1.11;75.76;99409.98;1750280;81;21714;-69
2021/03/20 00:58:36;;;;;;;30.17;15.78;;;;;;;1.08;75.84;99404.88;1737310;81;21159;-69
2021/03/20 01:01:13;;;;;;;26.45;15.35;;;;;;;1.11;75.72;99401.30;1747358;81;21159;-68
2021/03/20 01:03:41;;;;;;;27.85;15.23;;;;;;;1.24;75.50;99409.51;1746816;82;21167;-69
2021/03/20 01:06:12;;;;;;;27.75;16.15;;;;;;;1.19;75.53;99405.80;1747088;81;21208;-69
2021/03/20 01:08:40;;;;;;;27.93;17.42;;;;;;;1.11;75.67;99408.69;1740339;81;21699;-68
2021/03/20 01:11:08;;;;;;;27.93;16.62;;;;;;;1.07;75.85;99408.84;1746652;81;21137;-69
2021/03/20 01:13:37;;;;;;;30.00;16.65;;;;;;;1.09;75.61;99406.58;1752209;81;21135;-69
2021/03/20 01:16:05;;;;;;;28.30;16.48;;;;;;;1.23;75.21;99406.50;1739413;82;21215;-69
2021/03/20 01:18:32;;;;;;;24.50;14.05;;;;;;;1.17;75.19;99401.55;1735547;81;21167;-69
2021/03/20 01:21:00;;;;;;;25.70;15.93;;;;;;;1.06;75.29;99401.50;1733003;82;21159;-69
2021/03/20 01:23:27;;;;;;;28.25;15.60;;;;;;;0.94;75.40;99394.95;1733089;82;21317;-68
2021/03/20 01:25:54;;;;;;;27.07;15.28;;;;;;;0.93;75.42;99402.83;1743673;81;21152;-68
2021/03/20 01:28:27;;;;;;;30.68;17.05;;;;;;;0.90;75.42;99395.15;1752679;82;21752;-69
2021/03/20 01:30:54;;;;;;;29.30;16.20;;;;;;;0.89;75.50;99399.95;1739587;81;21140;-69
2021/03/20 01:33:21;;;;;;;30.97;16.73;;;;;;;1.06;75.29;99394.98;1758029;81;21625;-69
2021/03/20 01:35:49;;;;;;;24.67;16.05;;;;;;;1.11;75.19;99407.81;1762552;81;21202;-69
2021/03/20 01:38:16;;;;;;;27.73;16.57;;;;;;;1.05;75.33;99405.00;1742353;81;21628;-69
2021/03/20 01:40:49;;;;;;;34.58;18.87;;;;;;;0.98;75.42;99402.21;1696347;83;21206;-69
2021/03/20 01:43:17;;;;;;;33.55;17.82;;;;;;;0.95;75.33;99403.64;1696704;83;21156;-69
2021/03/20 01:45:44;;;;;;;35.50;18.98;;;;;;;1.09;74.98;99414.39;1754464;81;21135;-69
2021/03/20 01:48:35;;;;;;;38.85;21.48;;;;;;;1.04;74.74;99390.73;1719193;81;21197;-69
2021/03/20 01:51:04;;;;;;;37.17;21.45;;;;;;;1.08;74.87;99410.55;1744002;81;22352;-69
2021/03/20 01:53:38;;;;;;;41.55;22.42;;;;;;;1.01;75.05;99412.97;1747534;82;21647;-69
2021/03/20 01:56:16;;;;;;;37.60;22.05;;;;;;;0.99;75.05;99419.54;1744945;81;21715;-68
2021/03/20 01:58:46;;;;;;;41.68;22.42;;;;;;;1.02;74.94;99418.11;1745584;81;21147;-69
2021/03/20 02:01:24;;;;;;;34.38;20.57;;;;;;;0.96;75.02;99415.30;1720991;82;21602;-69
2021/03/20 02:03:54;;;;;;;37.33;21.37;;;;;;;1.09;74.69;99417.00;1731542;81;21159;-68
2021/03/20 02:06:22;;;;;;;37.75;21.40;;;;;;;1.11;74.54;99424.31;1736697;82;21199;-68
2021/03/20 02:08:49;;;;;;;34.73;20.02;;;;;;;1.00;74.72;99432.97;1739428;82;21154;-68
2021/03/20 02:11:37;;;;;;;38.85;21.23;;;;;;;0.92;74.94;99429.77;1739918;81;21143;-69
2021/03/20 02:14:37;;;;;;;39.73;22.73;;;;;;;0.94;74.86;99434.02;1736973;82;21163;-69
2021/03/20 02:17:25;;;;;;;38.38;22.77;;;;;;;1.01;74.65;99435.97;1738142;81;21196;-69
2021/03/20 02:20:20;;;;;;;40.10;22.60;;;;;;;0.93;74.66;99434.95;1746599;82;21655;-69
2021/03/20 02:22:58;;;;;;;29.50;17.40;;;;;;;0.85;74.60;99434.35;1746780;81;21156;-68
2021/03/20 02:25:50;;;;;;;36.13;20.15;;;;;;;0.86;74.39;99429.55;1755940;81;21179;-68
2021/03/20 02:28:38;;;;;;;36.40;19.67;;;;;;;0.83;74.42;99436.15;1750210;81;21632;-68
2021/03/20 02:31:40;;;;;;;28.90;17.12;;;;;;;0.86;74.35;99433.45;1755731;81;21163;-68
2021/03/20 02:34:43;;;;;;;33.88;18.25;;;;;;;0.85;74.14;99433.05;1750381;81;21309;-68
2021/03/20 02:37:25;;;;;;;32.50;17.55;;;;;;;0.83;73.83;99434.01;1742433;81;21177;-68
2021/03/20 02:40:28;;;;;;;30.82;16.48;;;;;;;0.74;73.82;99443.86;1728087;82;21311;-68
2021/03/20 02:43:04;;;;;;;27.27;14.58;;;;;;;0.73;73.47;99438.67;1750497;81;21171;-68
2021/03/20 02:45:40;;;;;;;21.45;13.72;;;;;;;0.69;73.08;99447.50;1755692;82;21738;-69
2021/03/20 02:48:13;;;;;;;23.20;13.05;;;;;;;0.69;72.78;99437.97;1753368;81;21163;-69
2021/03/20 02:51:05;;;;;;;21.85;12.25;;;;;;;0.65;72.62;99434.61;1736383;82;21128;-69
2021/03/20 02:53:52;;;;;;;19.45;10.93;;;;;;;0.65;72.39;99436.34;1740701;81;21549;-69
2021/03/20 02:56:28;;;;;;;22.37;12.05;;;;;;;0.59;72.32;99449.12;1738431;82;21707;-68
2021/03/20 02:59:06;;;;;;;17.98;10.18;;;;;;;0.52;72.55;99446.79;1738933;82;21306;-68
2021/03/20 03:01:33;;;;;;;19.85;11.53;;;;;;;0.49;72.76;99444.68;1747480;82;21329;-69
2021/03/20 03:04:02;;;;;;;21.20;11.93;;;;;;;0.42;72.94;99454.91;1749000;82;21191;-68
2021/03/20 03:06:54;;;;;;;19.35;11.12;;;;;;;0.38;73.22;99440.28;1748877;82;21163;-68
2021/03/20 03:09:48;;;;;;;16.82;10.60;;;;;;;0.39;73.59;99451.56;1744655;82;21793;-69
2021/03/20 03:12:35;;;;;;;17.27;11.10;;;;;;;0.37;74.04;99458.13;1749810;82;21170;-67
2021/03/20 03:15:15;;;;;;;18.42;10.15;;;;;;;0.29;74.36;99460.11;1661260;86;21608;-69
2021/03/20 03:17:46;;;;;;;17.10;10.23;;;;;;;0.23;75.10;99467.67;1722422;83;21603;-69
2021/03/20 03:20:25;;;;;;;19.92;10.23;;;;;;;0.19;75.28;99460.01;1692504;84;21172;-68
2021/03/20 03:22:57;;;;;;;16.57;10.20;;;;;;;0.14;75.53;99476.61;1741514;82;21541;-68
2021/03/20 03:25:26;;;;;;;13.93;8.93;;;;;;;0.13;75.77;99460.61;1739878;82;21127;-69
2021/03/20 03:27:55;;;;;;;15.15;10.08;;;;;;;0.08;75.92;99470.30;1714501;83;21168;-69
2021/03/20 03:30:24;;;;;;;18.15;10.05;;;;;;;0.09;76.02;99472.02;1730386;82;21814;-69
2021/03/20 03:33:03;;;;;;;16.05;10.35;;;;;;;0.04;76.32;99472.61;1709932;84;21197;-69
2021/03/20 03:35:40;;;;;;;16.48;10.65;;;;;;;0.05;76.34;99482.55;1709782;84;21311;-69
2021/03/20 03:38:42;;;;;;;16.57;10.35;;;;;;;0.00;76.49;99473.61;1732385;82;21168;-69
2021/03/20 03:41:28;;;;;;;18.75;9.73;;;;;;;0.04;76.55;99470.01;1731853;82;21123;-69
2021/03/20 03:43:56;;;;;;;18.70;10.80;;;;;;;0.04;76.65;99476.51;1732260;82;21640;-69
2021/03/20 03:46:28;;;;;;;18.45;10.72;;;;;;;0.11;76.61;99474.09;1732732;83;21184;-69
2021/03/20 03:48:59;;;;;;;19.80;10.98;;;;;;;0.02;76.86;99480.89;1734821;82;21703;-69
2021/03/20 03:51:26;;;;;;;17.17;10.72;;;;;;;-0.05;77.17;99474.17;1744418;82;21131;-69
2021/03/20 03:53:54;;;;;;;18.42;10.98;;;;;;;-0.01;77.14;99475.80;1747506;82;21211;-69
2021/03/20 03:56:47;;;;;;;14.58;8.98;;;;;;;-0.03;77.25;99471.09;1747640;82;21600;-69
2021/03/20 03:59:24;;;;;;;13.70;8.85;;;;;;;0.06;77.13;99481.19;1741612;82;21167;-69
2021/03/20 04:02:08;;;;;;;14.58;8.50;;;;;;;0.12;77.04;99477.10;1740809;82;21167;-69
2021/03/20 04:05:00;;;;;;;12.40;7.12;;;;;;;0.01;77.44;99477.89;1726223;82;21151;-69
2021/03/20 04:07:54;;;;;;;12.85;7.60;;;;;;;-0.04;77.68;99484.98;1738880;82;21600;-69
2021/03/20 04:10:28;;;;;;;;;;;;;;;0.01;77.71;99472.69;1735632;82;21588;-69
2021/03/20 04:13:01;;;;;;;14.05;7.22;;;;;;;0.01;77.87;99484.39;1734555;82;20284;-69
2021/03/20 04:15:53;;;;;;;;;;;;;;;-0.03;78.00;99478.42;1739457;82;21330;-69
2021/03/20 04:18:40;;;;;;;10.50;6.97;;;;;;;-0.01;78.10;99477.10;1737135;82;20285;-69
2021/03/20 04:21:31;;;;;;;13.90;8.40;;;;;;;-0.04;78.32;99483.68;1746664;81;21322;-69
2021/03/20 04:24:12;;;;;;;14.73;8.05;;;;;;;0.02;78.32;99483.49;1749297;82;21135;-70
2021/03/20 04:27:00;;;;;;;16.05;9.03;;;;;;;0.15;78.07;99484.83;1747588;82;21305;-70
2021/03/20 04:29:42;;;;;;;16.77;9.48;;;;;;;0.11;78.27;99488.86;1751744;82;21592;-70
2021/03/20 04:32:30;;;;;;;15.72;9.53;;;;;;;0.05;78.43;99495.12;1755238;81;21603;-70
2021/03/20 04:35:11;;;;;;;15.10;10.05;;;;;;;0.09;78.38;99494.55;1754725;82;21171;-70
2021/03/20 04:37:45;;;;;;;15.72;9.70;;;;;;;0.10;78.49;99488.02;1728802;81;21748;-70
2021/03/20 04:40:48;;;;;;;13.48;9.18;;;;;;;0.30;78.15;99491.72;1757159;81;21165;-70
2021/03/20 04:43:19;;;;;;;17.02;9.93;;;;;;;0.41;77.87;99491.36;1731379;81;21136;-70
2021/03/20 04:46:00;;;;;;;19.30;10.58;;;;;;;0.31;77.94;99496.03;1744138;82;21286;-69
2021/03/20 04:48:34;;;;;;;14.07;8.70;;;;;;;0.22;78.09;99497.61;1746678;82;21290;-69
2021/03/20 04:51:25;;;;;;;;;;;;;;;0.32;77.85;99496.44;1752593;82;21162;-69
2021/03/20 04:54:08;;;;;;;15.00;8.98;;;;;;;0.42;77.30;99500.45;1748482;82;20257;-69
2021/03/20 04:56:53;;;;;;;18.50;10.28;;;;;;;0.25;77.49;99499.67;1754841;81;21628;-69
2021/03/20 04:59:31;;;;;;;17.50;10.40;;;;;;;0.19;77.70;99506.81;1731708;81;21561;-68
2021/03/20 05:02:01;;;;;;;17.98;11.10;;;;;;;0.16;77.21;99518.17;1737289;81;21128;-68
2021/03/20 05:04:33;;;;;;;18.48;10.90;;;;;;;0.09;77.21;99507.12;1743740;82;21797;-68
2021/03/20 05:07:01;;;;;;;18.07;10.50;;;;;;;0.06;77.24;99508.49;1747134;81;21111;-68
2021/03/20 05:09:29;;;;;;;17.87;9.38;;;;;;;0.03;77.37;99513.80;1759439;81;21127;-68
2021/03/20 05:12:04;;;;;;;16.12;10.05;;;;;;;-0.04;77.46;99517.48;1750928;82;21143;-68
2021/03/20 05:14:43;;;;;;;18.80;10.18;;;;;;;-0.06;77.30;99520.13;1751534;82;21091;-68
2021/03/20 05:17:16;;;;;;;17.10;9.50;;;;;;;-0.07;77.25;99524.08;1756082;81;21730;-68
2021/03/20 05:19:44;;;;;;;17.57;11.05;;;;;;;-0.03;77.08;99525.69;1729770;81;21645;-68
2021/03/20 05:22:30;;;;;;;18.67;11.08;;;;;;;-0.03;77.00;99526.98;1715920;83;21290;-68
2021/03/20 05:24:59;;;;;;;17.20;9.98;;;;;;;0.08;76.85;99531.41;1716896;83;21168;-68
2021/03/20 05:27:29;;;;;;;21.23;11.43;;;;;;;0.08;76.51;99535.31;1714029;83;21370;-69
2021/03/20 05:29:56;;;;;;;17.62;11.20;;;;;;;0.13;76.28;99535.18;1714873;83;21193;-68
2021/03/20 05:34:09;;;;;;;16.40;10.35;;;;;;;0.23;75.73;99531.39;1776232;79;22686;-69
2021/03/20 05:36:38;;;;;;;16.62;10.68;;;;;;;0.19;75.69;99539.33;1714364;82;21285;-69
2021/03/20 05:39:05;;;;;;;18.50;10.50;;;;;;;0.22;75.58;99546.59;1743287;82;21691;-70
2021/03/20 05:41:47;;;;;;;17.52;10.25;;;;;;;0.27;75.29;99534.73;1727879;82;21285;-70
2021/03/20 05:44:48;;;;;;;15.50;9.78;;;;;;;0.34;75.04;99538.84;1737853;82;21170;-70
2021/03/20 05:47:38;;;;;;;13.00;8.90;;;;;;;0.38;74.94;99536.54;1730403;82;21159;-70
2021/03/20 05:50:14;;;;;;;14.30;8.28;;;;;;;0.46;74.08;99542.80;1733209;82;21135;-70
2021/03/20 05:53:12;;;;;;;15.10;9.18;;;;;;;0.41;73.62;99548.17;1730055;82;21150;-68
2021/03/20 05:55:53;;;;;;;15.25;9.85;;;;;;;0.41;73.65;99544.27;1723038;83;21214;-69
2021/03/20 05:59:04;;;;;;;15.58;9.68;;;;;;;0.44;73.16;99542.85;1733539;82;21272;-69
2021/03/20 06:02:02;;;;;;;17.00;9.50;;;;;;;0.47;72.97;99540.17;1745238;82;21183;-69
2021/03/20 06:05:03;;;;;;;13.95;9.25;;;;;;;0.64;72.89;99554.39;1727187;82;21679;-69
2021/03/20 06:07:53;;;;;;;14.18;9.33;;;;;;;0.68;73.14;99539.50;1723435;82;21312;-69
2021/03/20 06:10:32;;;;;;;15.63;9.48;;;;;;;0.78;72.52;99549.57;1723087;82;21155;-68
2021/03/20 06:13:44;;;;;;;15.50;9.03;;;;;;;0.84;72.18;99554.17;1721069;83;21222;-69
2021/03/20 06:16:27;;;;;;;13.93;8.20;;;;;;;0.91;72.13;99562.16;1732938;82;21671;-69
2021/03/20 06:19:01;;;;;;;14.03;8.48;;;;;;;1.01;71.09;99557.06;1735694;82;21154;-68
2021/03/20 06:21:56;;;;;;;14.53;8.83;;;;;;;1.02;70.89;99557.44;1749929;82;21155;-69
2021/03/20 06:24:55;;;;;;;16.02;9.73;;;;;;;1.08;70.69;99560.30;1736593;82;21154;-69
2021/03/20 06:27:34;;;;;;;15.58;9.10;;;;;;;1.12;70.29;99567.10;1722960;82;21593;-69
2021/03/20 06:30:10;;;;;;;15.03;8.88;;;;;;;1.18;70.17;99560.81;1713496;82;21193;-68
2021/03/20 06:32:43;;;;;;;16.70;9.83;;;;;;;1.23;69.82;99561.07;1641268;87;21199;-69
2021/03/20 06:35:25;;;;;;;17.82;10.93;;;;;;;1.34;69.07;99568.96;1710693;83;21143;-68
2021/03/20 06:37:56;;;;;;;28.38;17.10;;;;;;;1.33;69.05;99565.52;1699054;83;21159;-68
2021/03/20 06:40:47;;;;;;;26.20;17.98;;;;;;;1.45;69.44;99568.97;1707147;83;21307;-69
2021/03/20 06:43:16;;;;;;;19.77;12.18;;;;;;;1.46;69.02;99573.28;1673741;83;21306;-70
2021/03/20 06:45:44;;;;;;;14.33;8.68;;;;;;;1.51;69.06;99577.47;1702296;83;21139;-69
2021/03/20 06:48:17;;;;;;;15.60;10.20;;;;;;;1.54;68.61;99575.61;1710137;83;21269;-70
2021/03/20 06:50:48;;;;;;;16.55;9.73;;;;;;;1.62;68.84;99577.51;1714508;83;21577;-70
2021/03/20 06:53:17;;;;;;;14.25;9.13;;;;;;;1.66;68.55;99576.08;1654741;87;21345;-69
2021/03/20 06:55:49;;;;;;;14.60;9.08;;;;;;;1.72;68.37;99578.47;1664862;86;21214;-69
2021/03/20 06:58:25;;;;;;;17.62;10.28;;;;;;;1.77;68.17;99585.20;1706519;83;21182;-69
2021/03/20 07:00:53;;;;;;;14.05;8.68;;;;;;;1.83;67.73;99578.05;1692661;83;21186;-68
2021/03/20 07:03:46;;;;;;;13.85;8.88;;;;;;;1.88;68.09;99584.82;1716605;83;21592;-68
2021/03/20 07:06:31;;;;;;;14.10;8.58;;;;;;;1.96;67.93;99588.45;1717771;83;21156;-68
2021/03/20 07:09:01;;;;;;;15.43;8.45;;;;;;;1.96;68.13;99588.45;1717522;83;21302;-70
2021/03/20 07:11:39;;;;;;;12.68;7.67;;;;;;;2.10;67.22;99586.16;1703171;83;21115;-68
2021/03/20 07:14:12;;;;;;;12.00;7.92;;;;;;;2.19;67.93;99587.56;1687822;83;21139;-68
2021/03/20 07:16:57;;;;;;;14.58;8.50;;;;;;;2.36;66.87;99582.99;1717879;83;21660;-68
2021/03/20 07:19:30;;;;;;;15.13;8.40;;;;;;;2.24;67.70;99539.97;1780165;79;22959;-68
2021/03/20 07:22:02;;;;;;;14.80;8.60;;;;;;;2.69;67.27;99590.86;1748405;81;21612;-68
2021/03/20 07:24:42;;;;;;;14.40;8.28;;;;;;;2.90;67.02;99598.27;1748092;82;21229;-68
2021/03/20 07:27:19;;;;;;;13.90;8.08;;;;;;;3.06;65.65;99598.02;1709289;83;21170;-68
2021/03/20 07:29:49;;;;;;;12.10;7.50;;;;;;;3.20;65.66;99599.23;1693849;85;21619;-68
2021/03/20 07:32:27;;;;;;;12.47;7.67;;;;;;;3.36;65.97;99595.48;1707449;83;21576;-68
2021/03/20 07:35:21;;;;;;;11.50;7.12;;;;;;;3.49;64.27;99597.11;1720577;83;21155;-68
2021/03/20 07:37:50;;;;;;;14.17;8.07;;;;;;;3.53;63.76;99607.81;1712715;83;21269;-70
2021/03/20 07:40:31;;;;;;;11.65;7.37;;;;;;;3.58;63.53;99605.84;1732850;82;21376;-67
2021/03/20 07:43:11;;;;;;;11.33;6.72;;;;;;;3.60;62.71;99615.33;1735387;82;21505;-69
2021/03/20 07:45:39;;;;;;;13.40;7.45;;;;;;;3.59;61.82;99607.55;1736375;82;21309;-69
2021/03/20 07:48:29;;;;;;;14.87;8.18;;;;;;;3.56;62.59;99620.77;1710970;83;21348;-69
2021/03/20 07:51:06;;;;;;;16.90;7.83;;;;;;;3.68;61.80;99617.60;1708376;83;21514;-68
2021/03/20 07:53:47;;;;;;;13.00;7.55;;;;;;;3.73;62.59;99615.66;1700712;83;21147;-69
2021/03/20 07:56:36;;;;;;;13.70;8.08;;;;;;;3.79;62.44;99621.54;1702679;83;21124;-69
2021/03/20 07:59:18;;;;;;;12.03;6.65;;;;;;;3.74;61.14;99623.88;1710348;83;21154;-68
2021/03/20 08:01:53;;;;;;;13.25;7.47;;;;;;;3.72;61.10;99617.88;1694510;85;21190;-68
2021/03/20 08:04:52;;;;;;;19.17;8.85;;;;;;;3.71;60.23;99613.56;1727080;82;21182;-68
2021/03/20 08:07:52;;;;;;;11.97;7.97;;;;;;;3.66;60.80;99615.97;1707963;83;21174;-68
2021/03/20 08:10:33;;;;;;;12.65;7.17;;;;;;;3.70;60.26;99613.16;1724556;82;21178;-68
2021/03/20 08:13:18;;;;;;;11.60;7.15;;;;;;;3.60;59.85;99611.41;1722202;83;21487;-68
2021/03/20 08:15:49;;;;;;;12.75;8.48;;;;;;;3.56;60.77;99618.16;1711280;83;21175;-67
2021/03/20 08:18:33;;;;;;;14.80;9.05;;;;;;;3.65;61.07;99617.75;1706454;83;21167;-68
2021/03/20 08:21:14;;;;;;;13.50;8.40;;;;;;;3.70;60.00;99621.48;1708837;83;21619;-70
2021/03/20 08:24:04;;;;;;;14.43;7.97;;;;;;;3.64;60.07;99626.50;1689695;83;21316;-70
2021/03/20 08:26:46;;;;;;;17.07;8.98;;;;;;;3.68;61.30;99622.83;1720861;83;21211;-70
2021/03/20 08:30:00;;;;;;;20.75;9.13;;;;;;;3.89;61.78;99622.83;1700651;83;21174;-70
2021/03/20 08:33:03;;;;;;;14.83;9.15;;;;;;;4.08;61.25;99629.39;1690492;84;21717;-70
2021/03/20 08:36:10;;;;;;;14.55;8.65;;;;;;;4.18;58.08;99624.56;1699794;84;21188;-70
2021/03/20 08:39:10;;;;;;;15.23;9.40;;;;;;;4.10;58.87;99630.15;1699681;84;21328;-70
2021/03/20 08:42:04;;;;;;;14.43;8.43;;;;;;;4.12;58.97;99635.30;1706849;84;21149;-70
2021/03/20 08:45:11;;;;;;;11.05;7.62;;;;;;;4.07;57.59;99628.99;1709066;84;21144;-70
2021/03/20 08:48:07;;;;;;;13.53;7.92;;;;;;;4.07;57.59;99628.99;1708907;84;21135;-70
2021/03/20 08:51:05;;;;;;;10.23;6.28;;;;;;;4.11;56.32;99627.92;1703410;84;21173;-70
2021/03/20 08:54:04;;;;;;;12.50;6.45;;;;;;;4.09;56.70;99629.75;1702172;84;21114;-70
2021/03/20 08:57:12;;;;;;;10.78;6.30;;;;;;;4.09;56.01;99628.00;1707515;84;21166;-70
2021/03/20 08:59:52;;;;;;;8.53;5.00;;;;;;;4.09;56.53;99634.98;1702335;82;21175;-70
2021/03/20 09:02:28;;;;;;;8.78;5.22;;;;;;;4.20;56.55;99634.52;1684027;82;21719;-70
2021/03/20 09:05:08;;;;;;;9.90;5.87;;;;;;;4.29;54.30;99631.47;1699210;84;21161;-70
2021/03/20 09:07:41;;;;;;;7.85;5.20;;;;;;;4.34;53.95;99625.55;1701197;84;21161;-70
2021/03/20 09:10:17;;;;;;;6.37;4.55;;;;;;;4.30;52.42;99629.24;1709840;84;21146;-70
2021/03/20 09:12:49;;;;;;;7.95;4.95;;;;;;;4.23;53.42;99635.67;1706999;83;21285;-70
2021/03/20 09:15:22;;;;;;;9.30;5.28;;;;;;;4.27;53.54;99638.53;1710066;84;21164;-71
2021/03/20 09:17:49;;;;;;;10.00;6.85;;;;;;;4.37;52.20;99631.97;1708684;84;21191;-70
2021/03/20 09:20:46;;;;;;;11.38;5.55;;;;;;;4.44;51.27;99635.15;1709490;84;21321;-69
2021/03/20 09:23:22;;;;;;;9.45;5.42;;;;;;;4.48;50.85;99629.31;1710244;83;21322;-70
2021/03/20 09:25:54;;;;;;;10.70;6.05;;;;;;;4.54;50.33;99639.03;1708513;84;21336;-70
2021/03/20 09:28:28;;;;;;;7.78;5.05;;;;;;;4.55;50.96;99633.31;1698327;84;21099;-69
2021/03/20 09:30:56;;;;;;;6.85;4.50;;;;;;;4.60;50.97;99645.73;1706406;84;21210;-70
2021/03/20 09:33:32;;;;;;;8.50;5.10;;;;;;;4.69;51.30;99645.33;1708582;84;21337;-70
2021/03/20 09:36:11;;;;;;;7.60;5.22;;;;;;;4.81;49.86;99633.39;1708777;84;21169;-69
2021/03/20 09:38:42;;;;;;;16.10;9.48;;;;;;;4.81;50.05;99632.09;1704519;84;21649;-70
2021/03/20 09:41:21;;;;;;;7.62;4.80;;;;;;;4.74;49.79;99642.02;1680547;84;21326;-70
2021/03/20 09:44:01;;;;;;;9.38;4.15;;;;;;;4.70;48.78;99640.45;1706599;84;21464;-69
2021/03/20 09:46:44;;;;;;;9.63;4.60;;;;;;;4.55;49.36;99635.50;1704826;84;21100;-70
2021/03/20 09:49:22;;;;;;;7.35;4.50;;;;;;;4.65;49.84;99634.58;1704755;84;21135;-70
2021/03/20 09:51:55;;;;;;;5.95;3.95;;;;;;;4.83;46.92;99630.22;1700564;84;21184;-70
2021/03/20 09:54:39;;;;;;;8.15;4.25;;;;;;;4.90;46.47;99626.86;1706558;84;21780;-70
2021/03/20 09:59:54;;;;;;;6.22;4.10;;;;;;;5.27;47.82;99626.79;1777840;79;22974;-70
2021/03/20 10:02:27;;;;;;;9.30;4.70;;;;;;;5.28;47.69;99625.42;1729255;82;21162;-70
2021/03/20 10:05:06;;;;;;;6.50;4.28;;;;;;;5.36;48.64;99628.97;1723782;82;21277;-70
2021/03/20 10:07:36;;;;;;;6.95;4.87;;;;;;;5.39;47.21;99632.27;1741091;82;21119;-71
2021/03/20 10:10:16;;;;;;;9.83;4.47;;;;;;;5.38;48.76;99633.21;1747399;82;21135;-71
2021/03/20 10:12:51;;;;;;;9.65;4.78;;;;;;;5.47;47.25;99625.78;1735441;82;21345;-70
2021/03/20 10:15:32;;;;;;;6.15;4.40;;;;;;;5.65;47.95;99623.54;1747986;82;21175;-70
2021/03/20 10:18:17;;;;;;;6.05;4.42;;;;;;;5.69;46.00;99626.38;1753123;81;21895;-70
2021/03/20 10:21:00;;;;;;;8.35;4.70;;;;;;;5.79;47.60;99619.33;1745031;82;21818;-70
2021/03/20 10:24:04;;;;;;;11.75;5.05;;;;;;;6.04;47.86;99614.98;1736580;82;21096;-70
2021/03/20 10:26:40;;;;;;;6.55;4.20;;;;;;;6.17;46.67;99620.41;1697562;83;21299;-70
2021/03/20 10:29:22;;;;;;;5.37;4.10;;;;;;;6.02;45.16;99624.25;1710781;83;21186;-70
2021/03/20 10:31:52;;;;;;;6.65;3.67;;;;;;;5.93;45.93;99612.87;1705664;83;21544;-70
2021/03/20 10:34:24;;;;;;;8.93;3.90;;;;;;;5.86;44.70;99622.03;1720426;83;21175;-66
2021/03/20 10:37:09;;;;;;;5.20;3.62;;;;;;;5.77;44.81;99617.23;1713203;83;21630;-66
2021/03/20 10:39:39;;;;;;;10.32;4.80;;;;;;;5.67;44.07;99624.29;1711368;83;21273;-65
2021/03/20 10:42:24;;;;;;;10.98;4.37;;;;;;;5.62;44.77;99617.60;1651416;87;21206;-66
2021/03/20 10:44:55;;;;;;;5.28;3.30;;;;;;;5.67;44.41;99615.59;1668141;85;21342;-66
2021/03/20 10:47:30;;;;;;;4.95;3.75;;;;;;;5.78;42.60;99617.63;1659583;85;21158;-66
2021/03/20 10:50:28;;;;;;;6.37;4.12;;;;;;;5.71;42.17;99614.02;1663111;85;21199;-65
2021/03/20 10:53:02;;;;;;;9.03;4.33;;;;;;;5.79;43.66;99610.15;1655291;85;21194;-65
2021/03/20 10:55:38;;;;;;;5.70;3.75;;;;;;;5.83;42.87;99605.98;1666850;85;21195;-65
2021/03/20 10:58:07;;;;;;;12.73;4.83;;;;;;;5.84;42.77;99604.19;1664185;85;21699;-65
2021/03/20 11:00:45;;;;;;;10.65;4.80;;;;;;;5.83;43.26;99609.05;1644147;86;21184;-65
2021/03/20 11:03:35;;;;;;;9.03;4.45;;;;;;;5.81;45.05;99606.52;1642290;86;21584;-65
2021/03/20 11:06:15;;;;;;;9.23;4.60;;;;;;;5.72;45.49;99606.53;1652735;86;21155;-64
2021/03/20 11:08:46;;;;;;;8.03;4.58;;;;;;;5.67;45.29;99605.92;1647961;86;21215;-65
2021/03/20 11:11:21;;;;;;;5.83;3.95;;;;;;;5.72;46.17;99612.25;1657758;86;21195;-64
2021/03/20 11:13:51;;;;;;;13.13;4.58;;;;;;;5.80;45.13;99608.75;1653238;85;21142;-65
2021/03/20 11:16:25;;;;;;;8.10;4.42;;;;;;;5.76;45.94;99610.33;1648526;86;21219;-65
2021/03/20 11:18:57;;;;;;;9.08;4.17;;;;;;;5.62;46.31;99620.22;1648882;86;21179;-65
2021/03/20 11:21:42;;;;;;;13.28;4.78;;;;;;;5.44;46.94;99616.30;1677104;85;21643;-65
2021/03/20 11:24:35;;;;;;;10.40;4.78;;;;;;;5.37;47.78;99610.53;1693197;84;21729;-65
2021/03/20 11:27:25;;;;;;;6.50;4.37;;;;;;;5.37;50.29;99618.39;1835885;77;22914;-65
2021/03/20 11:30:04;;;;;;;6.87;4.00;;;;;;;5.30;50.43;99625.34;1797463;78;21544;-65
2021/03/20 11:32:39;;;;;;;17.85;3.95;;;;;;;5.23;50.37;99622.16;1820487;77;21307;-65
2021/03/20 11:35:14;;;;;;;11.15;3.75;;;;;;;5.22;50.21;99628.36;1813027;77;21148;-65
2021/03/20 11:37:44;;;;;;;9.88;4.40;;;;;;;5.21;48.22;99625.34;1839369;77;21127;-65
2021/03/20 11:40:27;;;;;;;5.25;3.85;;;;;;;5.20;48.08;99621.02;1763379;80;21164;-65
2021/03/20 11:42:58;;;;;;;6.12;4.12;;;;;;;5.20;47.36;99626.26;1756705;80;21292;-66
2021/03/20 11:45:30;;;;;;;6.15;3.85;;;;;;;5.09;48.18;99621.09;1757006;80;21180;-66
2021/03/20 11:48:01;;;;;;;7.22;4.60;;;;;;;4.98;48.70;99617.31;1759802;79;21178;-67
2021/03/20 11:50:33;;;;;;;6.40;4.08;;;;;;;4.89;49.59;99626.00;1739528;81;21144;-67
2021/03/20 11:53:25;;;;;;;7.55;4.72;;;;;;;4.84;48.86;99628.47;1757606;79;21186;-65
2021/03/20 11:55:55;;;;;;;7.20;4.30;;;;;;;4.82;48.72;99625.06;1764457;79;21317;-67
2021/03/20 11:58:29;;;;;;;10.03;6.12;;;;;;;4.81;49.42;99632.53;1752211;80;21608;-67
2021/03/20 12:00:58;;;;;;;7.37;5.35;;;;;;;4.82;48.95;99618.51;1762281;80;21145;-67
2021/03/20 12:03:38;;;;;;;8.75;4.45;;;;;;;4.80;48.61;99612.52;1747915;80;21160;-67
2021/03/20 12:06:19;;;;;;;8.78;3.95;;;;;;;4.78;49.61;99609.95;1759020;81;21168;-67
2021/03/20 12:09:01;;;;;;;13.70;5.22;;;;;;;4.85;50.84;99611.83;1760180;80;21096;-66
2021/03/20 12:11:51;;;;;;;12.40;4.72;;;;;;;4.98;50.82;99607.66;1760445;80;21125;-67
2021/03/20 12:14:34;;;;;;;7.20;4.17;;;;;;;5.12;50.66;99607.45;1765006;80;21190;-67
2021/03/20 12:17:17;;;;;;;6.97;4.17;;;;;;;5.25;50.83;99601.97;1786854;80;21236;-67
2021/03/20 12:20:09;;;;;;;8.13;4.95;;;;;;;5.39;50.65;99602.58;1760134;81;21595;-67
2021/03/20 12:22:49;;;;;;;9.95;4.62;;;;;;;5.50;50.62;99605.94;1737767;81;21190;-67
2021/03/20 12:25:57;;;;;;;9.18;4.80;;;;;;;5.60;50.29;99599.33;1756323;79;21150;-67
2021/03/20 12:28:37;;;;;;;7.10;4.95;;;;;;;5.68;49.48;99599.75;1734883;80;21206;-65
2021/03/20 12:31:17;;;;;;;6.65;4.47;;;;;;;5.72;49.54;99589.95;1741366;81;21268;-65